Terminal Aerodrome Forecast
Issued by NWS

Home | Current Version | Previous Version | Text Only | Print | Product List | Glossary On
Versions: 1 2 3 4 5 6 7 8 9 10 11 12 13
000
FTUS41 KPHI 201700
TAFPNE
TAF
KPNE 201740Z 2018/2118 14005KT P6SM SCT050
     FM210000 15004KT P6SM SCT050 BKN250
     FM210300 00000KT P6SM VCSH BKN050
     FM211600 17004KT P6SM BKN035=

USA.gov is the U.S. government's official web portal to all federal, state and local government web resources and services.